createdAt,value
2016-11-03T00:00:14.043Z,1014.13
2016-11-03T00:01:15.284Z,1014.09
2016-11-03T00:02:13.325Z,1014.1
2016-11-03T00:03:14.168Z,1014.09
2016-11-03T00:04:13.475Z,1014.06
2016-11-03T00:05:13.347Z,1014.04
2016-11-03T00:06:14.339Z,1014.05
2016-11-03T00:07:13.647Z,1014.04
2016-11-03T00:08:13.371Z,1014.05
2016-11-03T00:09:14.411Z,1014.08
2016-11-03T00:10:13.771Z,1014.06
2016-11-03T00:11:13.393Z,1014.04
2016-11-03T00:12:14.773Z,1014.05
2016-11-03T00:13:13.893Z,1014.08
2016-11-03T00:14:13.415Z,1014.07
2016-11-03T00:15:14.488Z,1014.09
2016-11-03T00:16:14.015Z,1014.1
2016-11-03T00:17:13.436Z,1014.17
2016-11-03T00:18:13.444Z,1014.13
2016-11-03T00:19:14.140Z,1014.11
2016-11-03T00:20:13.460Z,1014.1
2016-11-03T00:21:13.467Z,1014.15
2016-11-03T00:22:14.310Z,1014.14
2016-11-03T00:23:13.619Z,1014.13
2016-11-03T00:24:13.489Z,1014.14
2016-11-03T00:25:14.384Z,1014.17
2016-11-03T00:26:13.742Z,1014.15
2016-11-03T00:27:13.508Z,1014.14
2016-11-03T00:28:14.505Z,1014.08
2016-11-03T00:29:13.867Z,1014.12
2016-11-03T00:30:13.532Z,1014.12
2016-11-03T00:31:14.681Z,1014.12
2016-11-03T00:32:13.987Z,1014.11
2016-11-03T00:33:13.555Z,1014.09
2016-11-03T00:34:15.297Z,1014.11
2016-11-03T00:35:14.111Z,1014.09
2016-11-03T00:36:13.576Z,1014.08
2016-11-03T00:37:13.584Z,1014.1
2016-11-03T00:38:14.236Z,1014.1
2016-11-03T00:39:13.647Z,1014.05
2016-11-03T00:40:13.605Z,1014.06
2016-11-03T00:41:14.357Z,1014.06
2016-11-03T00:42:13.667Z,1014.12
2016-11-03T00:43:13.827Z,1014.12
2016-11-03T00:44:14.529Z,1014.13
2016-11-03T00:45:13.789Z,1014.18
2016-11-03T00:46:13.646Z,1014.13
2016-11-03T00:47:14.602Z,1014.09
2016-11-03T00:48:13.909Z,1014.14
2016-11-03T00:49:13.669Z,1014.13
2016-11-03T00:50:14.774Z,1014.1
2016-11-03T00:51:14.035Z,1014.13
2016-11-03T00:52:13.690Z,1014.12
2016-11-03T00:53:14.750Z,1014.09
2016-11-03T00:54:14.205Z,1014.12
2016-11-03T00:55:13.714Z,1014.13
2016-11-03T00:56:13.721Z,1014.13
2016-11-03T00:57:14.327Z,1014.16
2016-11-03T00:58:13.735Z,1014.13
2016-11-03T00:59:13.741Z,1014.15
2016-11-03T01:00:14.452Z,1014.17
2016-11-03T01:01:13.763Z,1014.19
2016-11-03T01:02:13.763Z,1014.18
2016-11-03T01:03:14.574Z,1014.14
2016-11-03T01:04:13.887Z,1014.17
2016-11-03T01:05:15.236Z,1014.11
2016-11-03T01:06:14.698Z,1014.14
2016-11-03T01:07:14.005Z,1014.15
2016-11-03T01:08:13.807Z,1014.11
2016-11-03T01:09:14.870Z,1014.1
2016-11-03T01:10:14.178Z,1014.14
2016-11-03T01:11:13.827Z,1014.14
2016-11-03T01:12:14.991Z,1014.14
2016-11-03T01:13:14.304Z,1014.12
2016-11-03T01:14:13.853Z,1014.11
2016-11-03T01:15:14.916Z,1014.07
2016-11-03T01:16:15.225Z,1014.13
2016-11-03T01:17:13.870Z,1014.14
2016-11-03T01:18:13.877Z,1014.15
2016-11-03T01:19:14.545Z,1014.15
2016-11-03T01:20:13.941Z,1014.17
2016-11-03T01:21:13.899Z,1014.17
2016-11-03T01:22:14.670Z,1014.18
2016-11-03T01:23:13.977Z,1014.19
2016-11-03T01:24:13.922Z,1014.18
2016-11-03T01:25:14.843Z,1014.18
2016-11-03T01:26:14.101Z,1014.21
2016-11-03T01:27:13.943Z,1014.26
2016-11-03T01:28:14.913Z,1014.26
2016-11-03T01:29:14.225Z,1014.23
2016-11-03T01:30:13.965Z,1014.29
2016-11-03T01:31:15.088Z,1014.31
2016-11-03T01:32:14.396Z,1014.25
2016-11-03T01:33:14.035Z,1014.24
2016-11-03T01:34:15.045Z,1014.24
2016-11-03T01:35:14.518Z,1014.23
2016-11-03T01:36:14.004Z,1014.25
2016-11-03T01:37:14.016Z,1014.23
2016-11-03T01:38:14.640Z,1014.24
2016-11-03T01:39:14.029Z,1014.21
2016-11-03T01:40:14.035Z,1014.22
2016-11-03T01:41:14.769Z,1014.24
2016-11-03T01:42:14.073Z,1014.26
2016-11-03T01:43:14.059Z,1014.22
2016-11-03T01:44:14.888Z,1014.25
2016-11-03T01:45:14.197Z,1014.25
2016-11-03T01:46:14.078Z,1014.24
2016-11-03T01:47:15.010Z,1014.24
2016-11-03T01:48:14.318Z,1014.27
2016-11-03T01:49:14.099Z,1014.29
2016-11-03T01:50:15.184Z,1014.29
2016-11-03T01:51:14.491Z,1014.27
2016-11-03T01:52:14.122Z,1014.26
2016-11-03T01:53:15.230Z,1014.25
2016-11-03T01:54:14.614Z,1014.3
2016-11-03T01:55:14.144Z,1014.32
2016-11-03T01:56:15.240Z,1014.33
2016-11-03T01:57:14.736Z,1014.33
2016-11-03T01:58:14.164Z,1014.35
2016-11-03T01:59:14.171Z,1014.35
2016-11-03T02:00:14.858Z,1014.35
2016-11-03T02:01:14.188Z,1014.36
2016-11-03T02:02:14.194Z,1014.34
2016-11-03T02:03:14.980Z,1014.34
2016-11-03T02:04:14.291Z,1014.34
2016-11-03T02:05:14.216Z,1014.34
2016-11-03T02:06:15.153Z,1014.34
2016-11-03T02:07:14.412Z,1014.36
2016-11-03T02:08:14.237Z,1014.37
2016-11-03T02:09:15.326Z,1014.4
2016-11-03T02:10:14.537Z,1014.4
2016-11-03T02:11:14.359Z,1014.4
2016-11-03T02:12:15.399Z,1014.39
2016-11-03T02:13:14.659Z,1014.34
2016-11-03T02:14:14.330Z,1014.35
2016-11-03T02:15:15.422Z,1014.37
2016-11-03T02:16:14.830Z,1014.34
2016-11-03T02:17:14.300Z,1014.34
2016-11-03T02:18:14.309Z,1014.35
2016-11-03T02:19:14.951Z,1014.32
2016-11-03T02:20:14.321Z,1014.38
2016-11-03T02:21:14.329Z,1014.36
2016-11-03T02:22:15.076Z,1014.37
2016-11-03T02:23:14.385Z,1014.39
2016-11-03T02:24:14.351Z,1014.4
2016-11-03T02:25:15.197Z,1014.43
2016-11-03T02:26:14.507Z,1014.41
2016-11-03T02:27:14.372Z,1014.47
2016-11-03T02:28:15.372Z,1014.48
2016-11-03T02:29:14.685Z,1014.5
2016-11-03T02:30:14.394Z,1014.43
2016-11-03T02:31:15.450Z,1014.51
2016-11-03T02:32:14.803Z,1014.54
2016-11-03T02:33:14.415Z,1014.49
2016-11-03T02:34:15.475Z,1014.47
2016-11-03T02:35:14.923Z,1014.48
2016-11-03T02:36:14.437Z,1014.49
2016-11-03T02:37:14.444Z,1014.48
2016-11-03T02:38:15.047Z,1014.43
2016-11-03T02:39:14.458Z,1014.46
2016-11-03T02:40:14.466Z,1014.44
2016-11-03T02:41:15.171Z,1014.46
2016-11-03T02:42:14.480Z,1014.45
2016-11-03T02:43:14.488Z,1014.41
2016-11-03T02:44:15.293Z,1014.41
2016-11-03T02:45:14.602Z,1014.39
2016-11-03T02:46:15.927Z,1014.4
2016-11-03T02:47:15.416Z,1014.38
2016-11-03T02:48:14.775Z,1014.44
2016-11-03T02:49:14.530Z,1014.48
2016-11-03T02:50:15.539Z,1014.47
2016-11-03T02:51:14.898Z,1014.48
2016-11-03T02:52:14.553Z,1014.45
2016-11-03T02:53:15.713Z,1014.46
2016-11-03T02:54:15.020Z,1014.44
2016-11-03T02:55:14.575Z,1014.42
2016-11-03T02:56:15.648Z,1014.42
2016-11-03T02:57:15.143Z,1014.43
2016-11-03T02:58:14.598Z,1014.43
2016-11-03T02:59:14.605Z,1014.43
2016-11-03T03:00:15.265Z,1014.43
2016-11-03T03:01:14.618Z,1014.45
2016-11-03T03:02:14.624Z,1014.45
2016-11-03T03:03:15.387Z,1014.49
2016-11-03T03:04:14.699Z,1014.47
2016-11-03T03:05:14.648Z,1014.49
2016-11-03T03:06:15.561Z,1014.45
2016-11-03T03:07:14.819Z,1014.47
2016-11-03T03:08:16.169Z,1014.51
2016-11-03T03:09:15.682Z,1014.45
2016-11-03T03:10:14.992Z,1014.46
2016-11-03T03:11:14.689Z,1014.46
2016-11-03T03:12:15.805Z,1014.49
2016-11-03T03:13:15.115Z,1014.51
2016-11-03T03:14:14.713Z,1014.54
2016-11-03T03:15:15.771Z,1014.54
2016-11-03T03:16:15.236Z,1014.51
2016-11-03T03:17:14.740Z,1014.54
2016-11-03T03:18:14.740Z,1014.53
2016-11-03T03:19:15.960Z,1014.58
2016-11-03T03:20:14.756Z,1014.55
2016-11-03T03:21:14.762Z,1014.56
2016-11-03T03:22:15.484Z,1014.56
2016-11-03T03:23:14.791Z,1014.55
2016-11-03T03:24:14.785Z,1014.52
2016-11-03T03:25:15.606Z,1014.53
2016-11-03T03:26:14.915Z,1014.54
2016-11-03T03:27:14.805Z,1014.6
2016-11-03T03:28:15.727Z,1014.63
2016-11-03T03:29:15.037Z,1014.54
2016-11-03T03:30:14.825Z,1014.59
2016-11-03T03:31:15.900Z,1014.59
2016-11-03T03:32:15.158Z,1014.57
2016-11-03T03:33:14.898Z,1014.57
2016-11-03T03:34:15.905Z,1014.56
2016-11-03T03:35:15.333Z,1014.54
2016-11-03T03:36:14.871Z,1014.56
2016-11-03T03:37:15.931Z,1014.51
2016-11-03T03:38:15.455Z,1014.51
2016-11-03T03:39:15.092Z,1014.54
2016-11-03T03:40:14.897Z,1014.55
2016-11-03T03:41:15.578Z,1014.58
2016-11-03T03:42:14.909Z,1014.56
2016-11-03T03:43:14.920Z,1014.54
2016-11-03T03:44:15.699Z,1014.53
2016-11-03T03:45:15.009Z,1014.54
2016-11-03T03:46:14.939Z,1014.57
2016-11-03T03:47:15.822Z,1014.56
2016-11-03T03:48:15.132Z,1014.57
2016-11-03T03:49:14.961Z,1014.52
2016-11-03T03:50:15.945Z,1014.57
2016-11-03T03:51:15.303Z,1014.54
2016-11-03T03:52:14.982Z,1014.58
2016-11-03T03:53:16.125Z,1014.55
2016-11-03T03:54:15.377Z,1014.59
2016-11-03T03:55:15.001Z,1014.51
2016-11-03T03:56:16.143Z,1014.54
2016-11-03T03:57:15.549Z,1014.5
2016-11-03T03:58:15.028Z,1014.49
2016-11-03T03:59:15.032Z,1014.56
2016-11-03T04:00:15.671Z,1014.49
2016-11-03T04:01:15.746Z,1014.51
2016-11-03T04:02:15.052Z,1014.56
2016-11-03T04:03:15.794Z,1014.58
2016-11-03T04:04:15.103Z,1014.57
2016-11-03T04:05:15.075Z,1014.59
2016-11-03T04:06:15.917Z,1014.56
2016-11-03T04:07:15.224Z,1014.56
2016-11-03T04:08:15.094Z,1014.54
2016-11-03T04:09:16.090Z,1014.61
2016-11-03T04:10:15.348Z,1014.56
2016-11-03T04:11:15.166Z,1014.59
2016-11-03T04:12:16.162Z,1014.62
2016-11-03T04:13:15.473Z,1014.56
2016-11-03T04:14:15.139Z,1014.63
2016-11-03T04:15:16.195Z,1014.58
2016-11-03T04:16:15.644Z,1014.6
2016-11-03T04:17:15.158Z,1014.63
2016-11-03T04:18:15.167Z,1014.59
2016-11-03T04:19:15.766Z,1014.61
2016-11-03T04:20:15.181Z,1014.63
2016-11-03T04:21:15.187Z,1014.64
2016-11-03T04:22:15.940Z,1014.59
2016-11-03T04:23:15.203Z,1014.62
2016-11-03T04:24:15.208Z,1014.62
2016-11-03T04:25:16.026Z,1014.6
2016-11-03T04:26:15.322Z,1014.58
2016-11-03T04:27:15.230Z,1014.6
2016-11-03T04:28:16.184Z,1014.59
2016-11-03T04:29:15.491Z,1014.62
2016-11-03T04:30:15.250Z,1014.59
2016-11-03T04:31:16.307Z,1014.59
2016-11-03T04:32:15.616Z,1014.63
2016-11-03T04:33:15.272Z,1014.61
2016-11-03T04:34:17.133Z,1014.59
2016-11-03T04:35:15.739Z,1014.59
2016-11-03T04:36:15.294Z,1014.56
2016-11-03T04:37:16.366Z,1014.59
2016-11-03T04:38:15.860Z,1014.57
2016-11-03T04:39:15.315Z,1014.59
2016-11-03T04:40:15.322Z,1014.61
2016-11-03T04:41:15.981Z,1014.59
2016-11-03T04:42:15.337Z,1014.55
2016-11-03T04:43:15.343Z,1014.58
2016-11-03T04:44:16.106Z,1014.56
2016-11-03T04:45:15.415Z,1014.52
2016-11-03T04:46:15.365Z,1014.54
2016-11-03T04:47:16.229Z,1014.5
2016-11-03T04:48:15.538Z,1014.51
2016-11-03T04:49:15.416Z,1014.5
2016-11-03T04:50:16.351Z,1014.5
2016-11-03T04:51:15.713Z,1014.48
2016-11-03T04:52:15.411Z,1014.49
2016-11-03T04:53:16.524Z,1014.52
2016-11-03T04:54:15.834Z,1014.52
2016-11-03T04:55:15.428Z,1014.5
2016-11-03T04:56:16.487Z,1014.54
2016-11-03T04:57:15.955Z,1014.52
2016-11-03T04:58:15.455Z,1014.53
2016-11-03T04:59:15.457Z,1014.52
2016-11-03T05:00:16.079Z,1014.5
2016-11-03T05:01:15.478Z,1014.51
2016-11-03T05:02:15.477Z,1014.54
2016-11-03T05:03:16.201Z,1014.49
2016-11-03T05:04:15.525Z,1014.48
2016-11-03T05:05:15.500Z,1014.5
2016-11-03T05:06:16.324Z,1014.48
2016-11-03T05:07:15.633Z,1014.5
2016-11-03T05:08:15.521Z,1014.48
2016-11-03T05:09:16.446Z,1014.53
2016-11-03T05:10:15.755Z,1014.54
2016-11-03T05:11:15.544Z,1014.53
2016-11-03T05:12:16.618Z,1014.53
2016-11-03T05:13:15.876Z,1014.53
2016-11-03T05:14:15.565Z,1014.51
2016-11-03T05:15:16.672Z,1014.53
2016-11-03T05:16:16.050Z,1014.53
2016-11-03T05:17:15.586Z,1014.51
2016-11-03T05:18:16.649Z,1014.57
2016-11-03T05:19:16.172Z,1014.54
2016-11-03T05:20:15.657Z,1014.48
2016-11-03T05:21:15.616Z,1014.54
2016-11-03T05:22:16.295Z,1014.53
2016-11-03T05:23:15.629Z,1014.54
2016-11-03T05:24:15.637Z,1014.52
2016-11-03T05:25:16.417Z,1014.56
2016-11-03T05:26:15.726Z,1014.54
2016-11-03T05:27:15.657Z,1014.56
2016-11-03T05:28:16.540Z,1014.56
2016-11-03T05:29:15.848Z,1014.57
2016-11-03T05:30:15.680Z,1014.6
2016-11-03T05:31:16.664Z,1014.56
2016-11-03T05:32:16.020Z,1014.53
2016-11-03T05:33:15.702Z,1014.54
2016-11-03T05:34:16.834Z,1014.51
2016-11-03T05:35:16.145Z,1014.56
2016-11-03T05:36:15.723Z,1014.53
2016-11-03T05:37:16.860Z,1014.56
2016-11-03T05:38:16.267Z,1014.53
2016-11-03T05:39:15.744Z,1014.52
2016-11-03T05:40:15.752Z,1014.55
2016-11-03T05:41:16.389Z,1014.55
2016-11-03T05:42:17.630Z,1014.58
2016-11-03T05:43:15.773Z,1014.6
2016-11-03T05:44:16.513Z,1014.57
2016-11-03T05:45:15.822Z,1014.58
2016-11-03T05:46:15.796Z,1014.58
2016-11-03T05:47:16.635Z,1014.63
2016-11-03T05:48:15.944Z,1014.66
2016-11-03T05:49:15.816Z,1014.67
2016-11-03T05:50:16.758Z,1014.69
2016-11-03T05:51:16.134Z,1014.69
2016-11-03T05:52:15.836Z,1014.68
2016-11-03T05:53:17.280Z,1014.6
2016-11-03T05:54:16.239Z,1014.66
2016-11-03T05:55:15.859Z,1014.7
2016-11-03T05:56:16.915Z,1014.69
2016-11-03T05:57:16.360Z,1014.72
2016-11-03T05:58:15.879Z,1014.69
2016-11-03T06:00:16.634Z,1014.73
2016-11-03T06:01:15.901Z,1014.73
2016-11-03T06:02:16.007Z,1014.71
2016-11-03T06:03:16.606Z,1014.68
2016-11-03T06:04:15.920Z,1014.72
2016-11-03T06:05:15.929Z,1014.71
2016-11-03T06:06:16.728Z,1014.68
2016-11-03T06:07:16.038Z,1014.74
2016-11-03T06:08:15.949Z,1014.74
2016-11-03T06:09:16.851Z,1014.81
2016-11-03T06:10:16.212Z,1014.79
2016-11-03T06:11:15.970Z,1014.81
2016-11-03T06:12:17.026Z,1014.84
2016-11-03T06:13:16.385Z,1014.87
2016-11-03T06:14:15.991Z,1014.91
2016-11-03T06:15:19.050Z,1014.88
2016-11-03T06:16:16.456Z,1014.86
2016-11-03T06:17:16.012Z,1014.87
2016-11-03T06:18:17.085Z,1014.87
2016-11-03T06:19:16.579Z,1014.91
2016-11-03T06:20:16.033Z,1014.9
2016-11-03T06:21:16.089Z,1014.94
2016-11-03T06:22:16.703Z,1014.98
2016-11-03T06:23:16.054Z,1014.98
2016-11-03T06:24:17.362Z,1015.02
2016-11-03T06:25:16.823Z,1014.98
2016-11-03T06:26:16.132Z,1015
2016-11-03T06:27:16.081Z,1015.02
2016-11-03T06:28:16.947Z,1015.05
2016-11-03T06:29:16.255Z,1015.04
2016-11-03T06:30:16.103Z,1015.1
2016-11-03T06:31:17.070Z,1015.13
2016-11-03T06:32:16.428Z,1015.15
2016-11-03T06:33:16.123Z,1015.2
2016-11-03T06:34:17.242Z,1015.2
2016-11-03T06:35:18.467Z,1015.2
2016-11-03T06:36:16.144Z,1015.19
2016-11-03T06:37:17.202Z,1015.26
2016-11-03T06:38:16.673Z,1015.23
2016-11-03T06:39:16.165Z,1015.27
2016-11-03T06:40:16.173Z,1015.27
2016-11-03T06:41:16.812Z,1015.28
2016-11-03T06:42:16.187Z,1015.28
2016-11-03T06:43:16.244Z,1015.28
2016-11-03T06:44:16.918Z,1015.25
2016-11-03T06:45:16.228Z,1015.27
2016-11-03T06:46:16.216Z,1015.29
2016-11-03T06:47:17.042Z,1015.26
2016-11-03T06:48:16.399Z,1015.3
2016-11-03T06:49:16.237Z,1015.3
2016-11-03T06:50:17.164Z,1015.23
2016-11-03T06:51:16.473Z,1015.28
2016-11-03T06:52:16.257Z,1015.29
2016-11-03T06:53:17.288Z,1015.29
2016-11-03T06:54:16.645Z,1015.31
2016-11-03T06:55:16.280Z,1015.31
2016-11-03T06:56:17.337Z,1015.32
2016-11-03T06:57:16.768Z,1015.34
2016-11-03T06:58:16.300Z,1015.33
2016-11-03T06:59:17.367Z,1015.34
2016-11-03T07:00:16.890Z,1015.34
2016-11-03T07:01:16.324Z,1015.33
2016-11-03T07:02:16.330Z,1015.35
2016-11-03T07:03:17.013Z,1015.39
2016-11-03T07:04:16.342Z,1015.39
2016-11-03T07:05:16.352Z,1015.38
2016-11-03T07:06:17.160Z,1015.37
2016-11-03T07:07:16.445Z,1015.38
2016-11-03T07:08:16.372Z,1015.39
2016-11-03T07:09:17.259Z,1015.42
2016-11-03T07:10:16.566Z,1015.43
2016-11-03T07:11:16.393Z,1015.41
2016-11-03T07:12:17.382Z,1015.39
2016-11-03T07:13:16.689Z,1015.4
2016-11-03T07:14:16.415Z,1015.4
2016-11-03T07:15:17.553Z,1015.41
2016-11-03T07:16:16.862Z,1015.41
2016-11-03T07:17:16.934Z,1015.47
2016-11-03T07:18:17.576Z,1015.44
2016-11-03T07:19:16.983Z,1015.52
2016-11-03T07:20:16.454Z,1015.46
2016-11-03T07:21:16.463Z,1015.53
2016-11-03T07:22:17.107Z,1015.52
2016-11-03T07:23:16.475Z,1015.53
2016-11-03T07:24:16.484Z,1015.51
2016-11-03T07:25:17.228Z,1015.51
2016-11-03T07:26:16.538Z,1015.55
2016-11-03T07:27:16.504Z,1015.53
2016-11-03T07:28:17.502Z,1015.55
2016-11-03T07:29:16.659Z,1015.57
2016-11-03T07:30:16.527Z,1015.52
2016-11-03T07:31:17.522Z,1015.54
2016-11-03T07:32:16.780Z,1015.5
2016-11-03T07:33:16.551Z,1015.5
2016-11-03T07:34:17.595Z,1015.51
2016-11-03T07:35:16.953Z,1015.52
2016-11-03T07:36:16.567Z,1015.55
2016-11-03T07:37:17.626Z,1015.58
2016-11-03T07:38:17.076Z,1015.54
2016-11-03T07:39:16.589Z,1015.58
2016-11-03T07:40:16.596Z,1015.6
2016-11-03T07:41:17.198Z,1015.58
2016-11-03T07:42:16.610Z,1015.58
2016-11-03T07:43:16.617Z,1015.59
2016-11-03T07:44:17.322Z,1015.59
2016-11-03T07:45:16.681Z,1015.6
2016-11-03T07:46:16.638Z,1015.58
2016-11-03T07:47:17.442Z,1015.65
2016-11-03T07:48:16.751Z,1015.59
2016-11-03T07:49:16.658Z,1015.61
2016-11-03T07:50:19.526Z,1015.62
2016-11-03T07:51:16.924Z,1015.62
2016-11-03T07:52:16.730Z,1015.57
2016-11-03T07:53:17.736Z,1015.59
2016-11-03T07:54:17.052Z,1015.6
2016-11-03T07:55:16.700Z,1015.6
2016-11-03T07:56:17.857Z,1015.61
2016-11-03T07:57:17.169Z,1015.64
2016-11-03T07:58:16.970Z,1015.64
2016-11-03T07:59:17.792Z,1015.65
2016-11-03T08:00:17.286Z,1015.61
2016-11-03T08:01:16.741Z,1015.67
2016-11-03T08:02:16.746Z,1015.68
2016-11-03T08:03:17.407Z,1015.69
2016-11-03T08:04:16.759Z,1015.65
2016-11-03T08:05:16.817Z,1015.71
2016-11-03T08:06:17.531Z,1015.71
2016-11-03T08:07:16.839Z,1015.69
2016-11-03T08:08:16.807Z,1015.71
2016-11-03T08:09:17.703Z,1015.72
2016-11-03T08:10:16.960Z,1015.71
2016-11-03T08:11:16.811Z,1015.67
2016-11-03T08:12:17.824Z,1015.69
2016-11-03T08:13:17.133Z,1015.72
2016-11-03T08:14:16.832Z,1015.71
2016-11-03T08:15:17.947Z,1015.72
2016-11-03T08:16:17.258Z,1015.71
2016-11-03T08:17:16.853Z,1015.75
2016-11-03T08:18:17.920Z,1015.76
2016-11-03T08:19:17.377Z,1015.76
2016-11-03T08:20:16.875Z,1015.75
2016-11-03T08:21:16.884Z,1015.76
2016-11-03T08:22:17.500Z,1015.72
2016-11-03T08:23:16.898Z,1015.77
2016-11-03T08:24:16.908Z,1015.78
2016-11-03T08:25:17.622Z,1015.77
2016-11-03T08:26:16.931Z,1015.77
2016-11-03T08:27:16.928Z,1015.81
2016-11-03T08:28:17.744Z,1015.8
2016-11-03T08:29:17.053Z,1015.81
2016-11-03T08:30:16.949Z,1015.8
2016-11-03T08:31:17.865Z,1015.83
2016-11-03T08:32:17.240Z,1015.85
2016-11-03T08:33:16.971Z,1015.83
2016-11-03T08:34:18.037Z,1015.85
2016-11-03T08:35:17.297Z,1015.88
2016-11-03T08:36:17.194Z,1015.88
2016-11-03T08:37:18.161Z,1015.91
2016-11-03T08:38:17.469Z,1015.94
2016-11-03T08:39:17.018Z,1015.93
2016-11-03T08:40:18.184Z,1015.95
2016-11-03T08:41:17.592Z,1015.93
2016-11-03T08:42:17.039Z,1015.93
2016-11-03T08:43:17.047Z,1015.93
2016-11-03T08:44:17.715Z,1015.97
2016-11-03T08:45:17.062Z,1015.93
2016-11-03T08:46:17.070Z,1015.94
2016-11-03T08:47:17.836Z,1015.99
2016-11-03T08:48:17.148Z,1015.95
2016-11-03T08:49:17.093Z,1015.98
2016-11-03T08:50:18.009Z,1015.94
2016-11-03T08:51:17.270Z,1015.95
2016-11-03T08:52:17.115Z,1016
2016-11-03T08:53:18.083Z,1015.97
2016-11-03T08:54:17.390Z,1015.94
2016-11-03T08:55:17.137Z,1015.96
2016-11-03T08:56:18.255Z,1015.97
2016-11-03T08:57:17.564Z,1015.97
2016-11-03T08:58:17.169Z,1015.96
2016-11-03T08:59:18.219Z,1016
2016-11-03T09:00:17.685Z,1016
2016-11-03T09:01:17.184Z,1015.95
2016-11-03T09:02:17.191Z,1015.97
2016-11-03T09:03:17.809Z,1016.01
2016-11-03T09:04:17.205Z,1015.96
2016-11-03T09:05:17.214Z,1015.95
2016-11-03T09:06:17.931Z,1016
2016-11-03T09:07:17.241Z,1015.97
2016-11-03T09:08:17.237Z,1015.96
2016-11-03T09:09:20.006Z,1015.93
2016-11-03T09:10:17.363Z,1016.01
2016-11-03T09:11:17.258Z,1015.97
2016-11-03T09:12:18.225Z,1015.93
2016-11-03T09:13:17.533Z,1015.96
2016-11-03T09:14:17.283Z,1015.94
2016-11-03T09:15:18.299Z,1015.99
2016-11-03T09:16:17.608Z,1015.88
2016-11-03T09:17:17.305Z,1015.93
2016-11-03T09:18:18.471Z,1015.91
2016-11-03T09:19:17.780Z,1015.95
2016-11-03T09:20:17.327Z,1015.91
2016-11-03T09:21:18.379Z,1015.93
2016-11-03T09:22:17.901Z,1015.92
2016-11-03T09:23:17.352Z,1015.94
2016-11-03T09:24:17.357Z,1015.95
2016-11-03T09:25:18.025Z,1015.97
2016-11-03T09:26:17.373Z,1015.99
2016-11-03T09:27:17.381Z,1015.98
2016-11-03T09:28:18.195Z,1015.98
2016-11-03T09:29:19.421Z,1015.97
2016-11-03T09:30:17.404Z,1015.96
2016-11-03T09:31:18.319Z,1016
2016-11-03T09:32:17.578Z,1015.97
2016-11-03T09:33:17.428Z,1015.97
2016-11-03T09:34:18.391Z,1015.98
2016-11-03T09:35:17.701Z,1015.96
2016-11-03T09:36:17.451Z,1015.99
2016-11-03T09:37:18.565Z,1015.97
2016-11-03T09:38:17.824Z,1016.01
2016-11-03T09:39:17.473Z,1016.03
2016-11-03T09:40:18.818Z,1016
2016-11-03T09:41:17.996Z,1015.98
2016-11-03T09:42:17.498Z,1016.01
2016-11-03T09:43:17.504Z,1015.99
2016-11-03T09:44:18.118Z,1015.98
2016-11-03T09:45:17.519Z,1015.98
2016-11-03T09:46:17.527Z,1016
2016-11-03T09:47:18.241Z,1016.02
2016-11-03T09:48:17.551Z,1015.96
2016-11-03T09:49:17.551Z,1016.01
2016-11-03T09:50:18.362Z,1016.01
2016-11-03T09:51:17.773Z,1016.04
2016-11-03T09:52:17.574Z,1016.04
2016-11-03T09:53:18.535Z,1016
2016-11-03T09:54:17.800Z,1015.99
2016-11-03T09:55:17.600Z,1016.01
2016-11-03T09:56:18.609Z,1015.98
2016-11-03T09:57:17.970Z,1015.99
2016-11-03T09:58:17.621Z,1015.98
2016-11-03T09:59:18.783Z,1016.02
2016-11-03T10:00:18.092Z,1016.02
2016-11-03T10:01:17.645Z,1016.01
2016-11-03T10:02:18.809Z,1016.05
2016-11-03T10:03:18.215Z,1016.04
2016-11-03T10:04:19.523Z,1015.97
2016-11-03T10:05:17.678Z,1016.04
2016-11-03T10:06:18.338Z,1015.98
2016-11-03T10:07:17.695Z,1016.05
2016-11-03T10:08:17.703Z,1015.98
2016-11-03T10:09:18.460Z,1015.95
2016-11-03T10:10:17.769Z,1015.95
2016-11-03T10:11:17.726Z,1015.93
2016-11-03T10:12:18.582Z,1015.9
2016-11-03T10:13:17.942Z,1015.88
2016-11-03T10:14:17.750Z,1015.91
2016-11-03T10:15:18.756Z,1015.88
2016-11-03T10:16:18.063Z,1015.89
2016-11-03T10:17:17.773Z,1015.86
2016-11-03T10:18:18.878Z,1015.79
2016-11-03T10:19:18.138Z,1015.79
2016-11-03T10:20:17.796Z,1015.81
2016-11-03T10:21:18.855Z,1015.77
2016-11-03T10:22:18.310Z,1015.78
2016-11-03T10:23:17.869Z,1015.8
2016-11-03T10:24:17.828Z,1015.78
2016-11-03T10:25:18.433Z,1015.78
2016-11-03T10:26:17.993Z,1015.79
2016-11-03T10:27:17.851Z,1015.79
2016-11-03T10:28:18.807Z,1015.78
2016-11-03T10:29:17.868Z,1015.77
2016-11-03T10:30:17.875Z,1015.76
2016-11-03T10:31:18.678Z,1015.78
2016-11-03T10:32:17.987Z,1015.76
2016-11-03T10:33:17.898Z,1015.74
2016-11-03T10:34:18.851Z,1015.73
2016-11-03T10:35:18.110Z,1015.76
2016-11-03T10:36:17.922Z,1015.73
2016-11-03T10:37:18.924Z,1015.76
2016-11-03T10:38:18.232Z,1015.8
2016-11-03T10:39:17.997Z,1015.72
2016-11-03T10:40:19.096Z,1015.76
2016-11-03T10:41:18.405Z,1015.79
2016-11-03T10:42:18.018Z,1015.82
2016-11-03T10:43:19.042Z,1015.84
2016-11-03T10:44:18.530Z,1015.79
2016-11-03T10:45:17.993Z,1015.85
2016-11-03T10:46:18.000Z,1015.83
2016-11-03T10:47:18.652Z,1015.79
2016-11-03T10:48:19.931Z,1015.78
2016-11-03T10:49:18.021Z,1015.78
2016-11-03T10:50:18.774Z,1015.81
2016-11-03T10:51:18.082Z,1015.84
2016-11-03T10:52:18.046Z,1015.8
2016-11-03T10:53:18.896Z,1015.82
2016-11-03T10:54:18.203Z,1015.75
2016-11-03T10:55:18.071Z,1015.74
2016-11-03T10:56:19.018Z,1015.82
2016-11-03T10:57:18.378Z,1015.77
2016-11-03T10:58:18.094Z,1015.75
2016-11-03T10:59:19.290Z,1015.76
2016-11-03T11:00:20.452Z,1015.73
2016-11-03T11:01:18.616Z,1015.78
2016-11-03T11:02:19.174Z,1015.79
2016-11-03T11:03:18.622Z,1015.74
2016-11-03T11:04:18.138Z,1015.74
2016-11-03T11:05:19.262Z,1015.83
2016-11-03T11:06:18.745Z,1015.79
2016-11-03T11:07:18.162Z,1015.75
2016-11-03T11:08:18.169Z,1015.74
2016-11-03T11:09:18.867Z,1015.69
2016-11-03T11:10:18.183Z,1015.78
2016-11-03T11:11:18.242Z,1015.7
2016-11-03T11:12:18.990Z,1015.74
2016-11-03T11:13:18.300Z,1015.73
2016-11-03T11:14:18.214Z,1015.67
2016-11-03T11:15:19.162Z,1015.67
2016-11-03T11:16:20.472Z,1015.62
2016-11-03T11:17:18.238Z,1015.65
2016-11-03T11:18:19.284Z,1015.71
2016-11-03T11:19:18.592Z,1015.69
2016-11-03T11:20:19.914Z,1015.67
2016-11-03T11:21:21.310Z,1015.7
2016-11-03T11:22:18.715Z,1015.74
2016-11-03T11:23:18.335Z,1015.68
2016-11-03T11:24:19.433Z,1015.68
2016-11-03T11:25:18.839Z,1015.71
2016-11-03T11:26:18.309Z,1015.71
2016-11-03T11:27:18.318Z,1015.67
2016-11-03T11:28:18.961Z,1015.67
2016-11-03T11:29:18.331Z,1015.62
2016-11-03T11:30:19.646Z,1015.68
2016-11-03T11:31:19.084Z,1015.61
2016-11-03T11:32:18.643Z,1015.63
2016-11-03T11:33:18.364Z,1015.61
2016-11-03T11:34:19.207Z,1015.6
2016-11-03T11:35:18.530Z,1015.6
2016-11-03T11:36:18.385Z,1015.61
2016-11-03T11:37:19.331Z,1015.61
2016-11-03T11:38:18.698Z,1015.6
2016-11-03T11:39:18.409Z,1015.62
2016-11-03T11:40:19.504Z,1015.6
2016-11-03T11:41:20.765Z,1015.63
2016-11-03T11:42:18.432Z,1015.55
2016-11-03T11:43:19.489Z,1015.6
2016-11-03T11:44:18.934Z,1015.62
2016-11-03T11:45:18.454Z,1015.62
2016-11-03T11:46:18.462Z,1015.62
2016-11-03T11:47:19.055Z,1015.65
2016-11-03T11:48:18.478Z,1015.62
2016-11-03T11:49:18.485Z,1015.58
2016-11-03T11:50:19.179Z,1015.64
2016-11-03T11:51:18.500Z,1015.64
2016-11-03T11:52:18.558Z,1015.6
2016-11-03T11:53:19.302Z,1015.64
2016-11-03T11:54:18.609Z,1015.64
2016-11-03T11:55:18.530Z,1015.61
2016-11-03T11:56:19.424Z,1015.6
2016-11-03T11:57:18.732Z,1015.6
2016-11-03T11:58:18.604Z,1015.55
2016-11-03T11:59:19.596Z,1015.54
2016-11-03T12:00:18.906Z,1015.53
2016-11-03T12:01:20.230Z,1015.5
2016-11-03T12:02:19.719Z,1015.52
2016-11-03T12:03:19.094Z,1015.52
2016-11-03T12:04:18.602Z,1015.47
2016-11-03T12:05:19.767Z,1015.48
2016-11-03T12:06:19.154Z,1015.56
2016-11-03T12:07:18.624Z,1015.5
2016-11-03T12:08:18.632Z,1015.49
2016-11-03T12:09:19.273Z,1015.47